Time;durP1;ratioP1;P1;durP2;ratioP2;P2;SDS_P1;SDS_P2;PMS_P1;PMS_P2;Temp;Humidity;BMP_temperature;BMP_pressure;BME280_temperature;BME280_humidity;BME280_pressure;Samples;Min_cycle;Max_cycle;Signal;HPM_P1;HPM_P2
2022/06/13 00:00:44;;;;;;;7.07;2.08;;;;;;;;;;6277442;22;19999;-68
2022/06/13 00:03:09;;;;;;;10.10;2.28;;;;;;;;;;6277301;22;20039;-69
2022/06/13 00:05:35;;;;;;;8.93;2.60;;;;;;;;;;6277239;22;19988;-68
2022/06/13 00:08:01;;;;;;;13.00;2.90;;;;;;;;;;6277553;22;20019;-68
2022/06/13 00:10:26;;;;;;;8.07;2.95;;;;;;;;;;6276904;22;20422;-68
2022/06/13 00:12:51;;;;;;;11.38;2.22;;;;;;;;;;6277516;22;20123;-68
2022/06/13 00:15:17;;;;;;;12.30;2.53;;;;;;;;;;6277307;22;19998;-68
2022/06/13 00:17:42;;;;;;;14.32;2.45;;;;;;;;;;6276863;22;20004;-68
2022/06/13 00:20:07;;;;;;;11.27;2.22;;;;;;;;;;6277029;22;20027;-68
2022/06/13 00:22:33;;;;;;;9.82;2.70;;;;;;;;;;6277113;22;19999;-68
2022/06/13 00:24:58;;;;;;;8.27;2.67;;;;;;;;;;6276903;22;20011;-68
2022/06/13 00:27:24;;;;;;;9.30;2.60;;;;;;;;;;6277223;22;19996;-68
2022/06/13 00:29:49;;;;;;;13.77;2.72;;;;;;;;;;6276950;22;20034;-69
2022/06/13 00:32:15;;;;;;;6.78;2.35;;;;;;;;;;6276398;22;20337;-69
2022/06/13 00:34:40;;;;;;;12.02;2.97;;;;;;;;;;6276422;22;19991;-68
2022/06/13 00:37:06;;;;;;;9.43;2.50;;;;;;;;;;6277009;22;19992;-68
2022/06/13 00:39:31;;;;;;;8.48;2.50;;;;;;;;;;6276046;22;20439;-68
2022/06/13 00:41:56;;;;;;;16.58;3.00;;;;;;;;;;6276936;22;19999;-68
2022/06/13 00:44:25;;;;;;;8.02;2.65;;;;;;;;;;6276497;22;20408;-68
2022/06/13 00:46:50;;;;;;;14.57;2.90;;;;;;;;;;6276727;22;20432;-68
2022/06/13 00:49:40;;;;;;;6.50;2.67;;;;;;;;;;6276604;22;19998;-68
2022/06/13 00:52:12;;;;;;;15.15;3.17;;;;;;;;;;6276401;22;20015;-68
2022/06/13 00:54:38;;;;;;;13.02;2.72;;;;;;;;;;6276424;22;20503;-68
2022/06/13 00:57:05;;;;;;;8.77;2.58;;;;;;;;;;6276771;22;19992;-68
2022/06/13 00:59:33;;;;;;;13.02;3.15;;;;;;;;;;6276390;22;20015;-68
2022/06/13 01:01:58;;;;;;;7.70;2.60;;;;;;;;;;6276367;22;20008;-68
2022/06/13 01:04:24;;;;;;;16.73;3.63;;;;;;;;;;6276370;22;20015;-68
2022/06/13 01:06:50;;;;;;;10.57;3.13;;;;;;;;;;6276264;22;20000;-68
2022/06/13 01:09:16;;;;;;;11.10;2.60;;;;;;;;;;6276549;22;20327;-68
2022/06/13 01:11:44;;;;;;;11.07;2.95;;;;;;;;;;6276660;22;20002;-68
2022/06/13 01:14:09;;;;;;;14.52;3.03;;;;;;;;;;6276569;22;20003;-68
2022/06/13 01:16:53;;;;;;;11.70;3.17;;;;;;;;;;6276281;22;20486;-68
2022/06/13 01:19:37;;;;;;;9.05;2.78;;;;;;;;;;6276320;22;20012;-68
2022/06/13 01:22:21;;;;;;;10.05;3.00;;;;;;;;;;6276458;22;20008;-68
2022/06/13 01:24:49;;;;;;;14.40;2.58;;;;;;;;;;6275786;22;20517;-68
2022/06/13 01:27:14;;;;;;;10.25;2.70;;;;;;;;;;6276249;22;20018;-68
2022/06/13 01:29:49;;;;;;;8.02;2.75;;;;;;;;;;6276245;22;20059;-68
2022/06/13 01:32:26;;;;;;;11.30;3.47;;;;;;;;;;6276094;22;20010;-68
2022/06/13 01:35:00;;;;;;;16.38;3.25;;;;;;;;;;6249241;22;20301;-68
2022/06/13 01:37:31;;;;;;;9.32;2.65;;;;;;;;;;6276394;22;20082;-68
2022/06/13 01:40:12;;;;;;;7.85;2.58;;;;;;;;;;6276348;22;20000;-68
2022/06/13 01:42:55;;;;;;;10.80;2.75;;;;;;;;;;6276482;22;20006;-68
2022/06/13 01:45:30;;;;;;;6.32;2.35;;;;;;;;;;6276240;22;20323;-68
2022/06/13 01:47:59;;;;;;;12.43;2.88;;;;;;;;;;6275824;22;20423;-68
2022/06/13 01:50:25;;;;;;;8.88;2.78;;;;;;;;;;6276234;22;20008;-68
2022/06/13 01:52:54;;;;;;;16.45;3.13;;;;;;;;;;6276546;22;20368;-69
2022/06/13 01:55:19;;;;;;;12.73;2.75;;;;;;;;;;6276302;22;20007;-68
2022/06/13 01:57:49;;;;;;;13.52;2.88;;;;;;;;;;6276031;22;20000;-68
2022/06/13 02:00:16;;;;;;;9.00;2.63;;;;;;;;;;6275939;22;20027;-68
2022/06/13 02:02:47;;;;;;;14.15;2.90;;;;;;;;;;6276253;22;20000;-68
2022/06/13 02:05:19;;;;;;;9.75;3.05;;;;;;;;;;6276126;22;20038;-68
2022/06/13 02:07:46;;;;;;;14.80;2.90;;;;;;;;;;6276187;22;19999;-68
2022/06/13 02:10:16;;;;;;;16.63;3.08;;;;;;;;;;6276129;22;20065;-68
2022/06/13 02:12:43;;;;;;;11.32;3.08;;;;;;;;;;6276257;22;19996;-68
2022/06/13 02:15:14;;;;;;;11.77;2.90;;;;;;;;;;6276053;22;20083;-69
2022/06/13 02:17:46;;;;;;;9.85;2.65;;;;;;;;;;6276309;22;20086;-68
2022/06/13 02:20:19;;;;;;;11.73;3.20;;;;;;;;;;6276093;22;20003;-69
2022/06/13 02:22:53;;;;;;;18.20;2.75;;;;;;;;;;6276135;22;20008;-68
2022/06/13 02:25:21;;;;;;;8.90;2.85;;;;;;;;;;6276127;22;20095;-68
2022/06/13 02:27:51;;;;;;;11.18;2.88;;;;;;;;;;6276231;22;20008;-68
2022/06/13 02:30:18;;;;;;;12.95;3.20;;;;;;;;;;6275760;22;20400;-68
2022/06/13 02:32:55;;;;;;;21.67;3.30;;;;;;;;;;6276279;22;20038;-68
2022/06/13 02:35:23;;;;;;;11.23;2.53;;;;;;;;;;6276204;22;20035;-68
2022/06/13 02:38:03;;;;;;;18.75;2.95;;;;;;;;;;6275900;22;20086;-68
2022/06/13 02:40:32;;;;;;;15.90;2.97;;;;;;;;;;6277359;22;20004;-68
2022/06/13 02:43:03;;;;;;;12.00;2.72;;;;;;;;;;6277925;22;20000;-68
2022/06/13 02:45:28;;;;;;;10.85;2.53;;;;;;;;;;6250575;22;20328;-68
2022/06/13 02:48:05;;;;;;;14.10;3.25;;;;;;;;;;6278040;22;19992;-68
2022/06/13 02:50:36;;;;;;;9.63;3.20;;;;;;;;;;6277846;22;20073;-68
2022/06/13 02:53:20;;;;;;;10.23;2.85;;;;;;;;;;6277765;22;20023;-68
2022/06/13 02:56:02;;;;;;;9.10;3.03;;;;;;;;;;6277644;22;20125;-68
2022/06/13 02:58:37;;;;;;;14.18;2.85;;;;;;;;;;6277436;22;20030;-68
2022/06/13 03:01:22;;;;;;;12.32;2.97;;;;;;;;;;6277875;22;20011;-68
2022/06/13 03:04:00;;;;;;;18.40;2.72;;;;;;;;;;6255923;22;20016;-68
2022/06/13 03:06:33;;;;;;;10.65;2.33;;;;;;;;;;6277571;22;20003;-68
2022/06/13 03:09:08;;;;;;;11.95;3.08;;;;;;;;;;6277614;22;20012;-68
2022/06/13 03:11:36;;;;;;;9.38;2.63;;;;;;;;;;6277574;22;20053;-68
2022/06/13 03:14:04;;;;;;;7.30;3.00;;;;;;;;;;6277709;22;20004;-68
2022/06/13 03:16:33;;;;;;;9.73;3.10;;;;;;;;;;6277457;22;19992;-68
2022/06/13 03:19:18;;;;;;;16.90;3.03;;;;;;;;;;6277686;22;20117;-68
2022/06/13 03:21:49;;;;;;;15.27;3.22;;;;;;;;;;6276641;22;20007;-68
2022/06/13 03:24:21;;;;;;;13.50;3.08;;;;;;;;;;6277424;22;20015;-68
2022/06/13 03:26:49;;;;;;;12.82;3.05;;;;;;;;;;6277583;22;20008;-68
2022/06/13 03:29:19;;;;;;;15.32;2.95;;;;;;;;;;6277314;22;20008;-69
2022/06/13 03:31:47;;;;;;;11.50;2.55;;;;;;;;;;6277479;22;20323;-68
2022/06/13 03:34:16;;;;;;;16.58;2.97;;;;;;;;;;6276989;22;20455;-69
2022/06/13 03:36:43;;;;;;;12.20;3.35;;;;;;;;;;6277509;22;20003;-68
2022/06/13 03:39:38;;;;;;;11.30;3.58;;;;;;;;;;6277514;22;20327;-68
2022/06/13 03:42:03;;;;;;;;;;;;;;;;;;6251355;22;20078;-68
2022/06/13 03:44:30;;;;;;;9.98;2.90;;;;;;;;;;6276834;22;20307;-68
2022/06/13 03:47:00;;;;;;;18.88;4.80;;;;;;;;;;6277361;22;20008;-68
2022/06/13 03:49:49;;;;;;;15.10;3.53;;;;;;;;;;6277184;22;20000;-68
2022/06/13 03:52:15;;;;;;;13.73;3.17;;;;;;;;;;6276878;22;20074;-68
2022/06/13 03:54:47;;;;;;;13.73;3.25;;;;;;;;;;6277058;22;20083;-68
2022/06/13 03:57:32;;;;;;;18.05;3.47;;;;;;;;;;6277293;22;19999;-68
2022/06/13 04:00:04;;;;;;;11.80;3.55;;;;;;;;;;6276881;22;20000;-68
2022/06/13 04:02:31;;;;;;;14.13;3.45;;;;;;;;;;6277103;22;20008;-68
2022/06/13 04:04:56;;;;;;;18.00;3.28;;;;;;;;;;6276987;22;20061;-68
2022/06/13 04:07:22;;;;;;;12.70;3.20;;;;;;;;;;6277167;22;19996;-68
2022/06/13 04:09:50;;;;;;;14.43;3.15;;;;;;;;;;6276784;22;20432;-68
2022/06/13 04:12:28;;;;;;;24.13;3.42;;;;;;;;;;6277113;22;20041;-69
2022/06/13 04:15:05;;;;;;;12.05;3.13;;;;;;;;;;6277100;22;20008;-68
2022/06/13 04:17:40;;;;;;;14.18;2.88;;;;;;;;;;6276889;22;20003;-68
2022/06/13 04:20:05;;;;;;;12.52;2.80;;;;;;;;;;6277018;22;20366;-68
2022/06/13 04:22:30;;;;;;;16.00;3.30;;;;;;;;;;6276888;22;20042;-69
2022/06/13 04:24:58;;;;;;;14.38;2.67;;;;;;;;;;6276776;22;20015;-68
2022/06/13 04:27:33;;;;;;;13.55;2.42;;;;;;;;;;6276965;22;20007;-68
2022/06/13 04:30:09;;;;;;;9.38;2.50;;;;;;;;;;6276842;22;20003;-68
2022/06/13 04:32:39;;;;;;;11.10;2.40;;;;;;;;;;6276829;22;20004;-68
2022/06/13 04:35:04;;;;;;;7.78;2.40;;;;;;;;;;6276980;22;20010;-68
2022/06/13 04:37:30;;;;;;;12.13;2.55;;;;;;;;;;6276540;22;20074;-68
2022/06/13 04:39:58;;;;;;;12.23;2.30;;;;;;;;;;6276952;22;19987;-68
2022/06/13 04:42:25;;;;;;;12.73;2.65;;;;;;;;;;6276959;22;20011;-68
2022/06/13 04:44:51;;;;;;;8.63;1.98;;;;;;;;;;6276422;22;20470;-68
2022/06/13 04:47:17;;;;;;;9.63;2.65;;;;;;;;;;6276684;22;20003;-68
2022/06/13 04:49:55;;;;;;;7.90;1.95;;;;;;;;;;6276840;22;20004;-68
2022/06/13 04:52:27;;;;;;;5.60;1.88;;;;;;;;;;6277084;22;20004;-68
2022/06/13 04:54:59;;;;;;;6.60;1.90;;;;;;;;;;6276903;22;20012;-68
2022/06/13 04:57:25;;;;;;;7.43;2.13;;;;;;;;;;6276600;22;20501;-69
2022/06/13 04:59:50;;;;;;;4.93;1.70;;;;;;;;;;6276792;22;20111;-70
2022/06/13 05:02:20;;;;;;;4.75;1.58;;;;;;;;;;6276026;22;20435;-69
2022/06/13 05:04:45;;;;;;;3.03;1.45;;;;;;;;;;6276363;22;20440;-69
2022/06/13 05:07:12;;;;;;;4.47;1.42;;;;;;;;;;6277136;22;20011;-69
2022/06/13 05:09:40;;;;;;;4.55;1.48;;;;;;;;;;6276553;22;20011;-69
2022/06/13 05:12:18;;;;;;;5.53;1.85;;;;;;;;;;6276510;22;20301;-70
2022/06/13 05:14:44;;;;;;;4.55;1.50;;;;;;;;;;6276660;22;20019;-70
2022/06/13 05:17:09;;;;;;;4.40;1.50;;;;;;;;;;6276793;22;20003;-70
2022/06/13 05:19:43;;;;;;;8.00;1.90;;;;;;;;;;6276372;22;20004;-69
2022/06/13 05:22:23;;;;;;;2.75;1.40;;;;;;;;;;6276788;22;20063;-69
2022/06/13 05:24:48;;;;;;;2.90;1.27;;;;;;;;;;6276381;22;20007;-70
2022/06/13 05:27:14;;;;;;;3.78;1.50;;;;;;;;;;6276729;22;20007;-70
2022/06/13 05:29:39;;;;;;;3.25;1.30;;;;;;;;;;6276438;22;20408;-69
2022/06/13 05:32:05;;;;;;;2.88;1.27;;;;;;;;;;6276321;22;20062;-70
2022/06/13 05:34:33;;;;;;;5.07;1.30;;;;;;;;;;6276414;22;20057;-69
2022/06/13 05:36:59;;;;;;;2.70;1.30;;;;;;;;;;6276629;22;19996;-70
2022/06/13 05:39:24;;;;;;;4.38;1.23;;;;;;;;;;6276784;22;20016;-70
2022/06/13 05:41:49;;;;;;;3.42;1.60;;;;;;;;;;6276467;22;20432;-71
2022/06/13 05:44:14;;;;;;;2.75;1.25;;;;;;;;;;6276619;22;20003;-71
2022/06/13 05:46:40;;;;;;;3.63;1.10;;;;;;;;;;6276331;22;19999;-71
2022/06/13 05:49:06;;;;;;;3.80;1.40;;;;;;;;;;6276589;22;20380;-70
2022/06/13 05:51:32;;;;;;;4.03;1.27;;;;;;;;;;6276095;22;20412;-71
2022/06/13 05:53:57;;;;;;;4.10;1.38;;;;;;;;;;6275948;22;20000;-71
2022/06/13 05:56:24;;;;;;;4.50;1.50;;;;;;;;;;6276625;22;20473;-71
2022/06/13 05:58:49;;;;;;;2.70;1.10;;;;;;;;;;6276452;22;20045;-71
2022/06/13 06:01:15;;;;;;;3.88;1.40;;;;;;;;;;6276081;22;19996;-71
2022/06/13 06:03:41;;;;;;;3.10;1.20;;;;;;;;;;6276156;22;20007;-71
2022/06/13 06:06:06;;;;;;;3.22;1.30;;;;;;;;;;6276647;22;19998;-71
2022/06/13 06:08:33;;;;;;;2.92;1.27;;;;;;;;;;6276223;22;20008;-71
2022/06/13 06:10:59;;;;;;;3.67;1.27;;;;;;;;;;6276509;22;20057;-71
2022/06/13 06:13:25;;;;;;;2.22;1.17;;;;;;;;;;6277100;22;20075;-72
2022/06/13 06:15:51;;;;;;;3.25;1.40;;;;;;;;;;6277990;22;19999;-72
2022/06/13 06:18:17;;;;;;;2.88;1.38;;;;;;;;;;6278001;22;20011;-72
2022/06/13 06:20:42;;;;;;;2.95;1.38;;;;;;;;;;6278049;22;20637;-71
2022/06/13 06:23:09;;;;;;;4.45;1.40;;;;;;;;;;6278490;22;20003;-71
2022/06/13 06:25:34;;;;;;;4.72;1.60;;;;;;;;;;6278521;22;20458;-71
2022/06/13 06:28:00;;;;;;;3.85;1.40;;;;;;;;;;6278517;22;19996;-71
2022/06/13 06:30:28;;;;;;;3.92;1.42;;;;;;;;;;6278238;22;20361;-71
2022/06/13 06:32:57;;;;;;;2.78;1.40;;;;;;;;;;6278010;22;20297;-72
2022/06/13 06:35:26;;;;;;;3.83;1.42;;;;;;;;;;6278253;22;20308;-71
2022/06/13 06:37:53;;;;;;;3.63;1.40;;;;;;;;;;6277989;22;20011;-72
2022/06/13 06:40:19;;;;;;;4.90;1.50;;;;;;;;;;6278141;22;20003;-72
2022/06/13 06:42:45;;;;;;;5.95;1.52;;;;;;;;;;6277705;22;20319;-72
2022/06/13 06:45:10;;;;;;;6.10;1.60;;;;;;;;;;6277669;22;20102;-72
2022/06/13 06:47:36;;;;;;;2.17;1.13;;;;;;;;;;6277923;22;20082;-71
2022/06/13 06:50:03;;;;;;;3.72;1.40;;;;;;;;;;6278302;22;19991;-72
2022/06/13 06:52:28;;;;;;;3.58;1.35;;;;;;;;;;6278077;22;20004;-72
2022/06/13 07:00:21;;;;;;;4.63;1.23;;;;;;;;;;6277893;22;20023;-72
2022/06/13 07:02:47;;;;;;;7.18;1.52;;;;;;;;;;6278124;22;19992;-71
2022/06/13 07:05:13;;;;;;;3.28;1.40;;;;;;;;;;6277934;22;20086;-71
2022/06/13 07:07:38;;;;;;;4.32;1.40;;;;;;;;;;6277932;22;20022;-72
2022/06/13 07:10:04;;;;;;;3.92;1.27;;;;;;;;;;6277834;22;20484;-72
2022/06/13 07:12:29;;;;;;;5.30;1.40;;;;;;;;;;6278078;22;19999;-72
2022/06/13 07:14:54;;;;;;;4.28;1.38;;;;;;;;;;6277874;22;19995;-72
2022/06/13 07:17:21;;;;;;;5.77;1.23;;;;;;;;;;6277766;22;20002;-72
2022/06/13 07:19:46;;;;;;;4.35;1.40;;;;;;;;;;6277260;22;20312;-71
2022/06/13 07:22:13;;;;;;;6.28;1.20;;;;;;;;;;6278110;22;20026;-72
2022/06/13 07:24:38;;;;;;;5.75;1.42;;;;;;;;;;6276841;22;20363;-72
2022/06/13 07:27:04;;;;;;;3.42;1.30;;;;;;;;;;6277625;22;20022;-70
2022/06/13 07:29:29;;;;;;;2.42;1.02;;;;;;;;;;6277887;22;19992;-70
2022/06/13 07:31:57;;;;;;;3.33;1.30;;;;;;;;;;6278046;22;20002;-70
2022/06/13 07:34:24;;;;;;;3.35;1.38;;;;;;;;;;6277881;22;20239;-70
2022/06/13 07:36:51;;;;;;;5.07;1.55;;;;;;;;;;6277687;22;19996;-70
2022/06/13 07:39:17;;;;;;;5.53;1.73;;;;;;;;;;6277364;22;20014;-70
2022/06/13 07:41:42;;;;;;;5.47;1.40;;;;;;;;;;6277813;22;20007;-70
2022/06/13 07:44:12;;;;;;;3.20;1.40;;;;;;;;;;6277419;22;20379;-70
2022/06/13 07:46:38;;;;;;;5.28;1.50;;;;;;;;;;6277335;22;20022;-70
2022/06/13 07:49:03;;;;;;;4.17;1.40;;;;;;;;;;6277782;22;20416;-70
2022/06/13 07:51:28;;;;;;;4.03;1.42;;;;;;;;;;6277688;22;20280;-70
2022/06/13 07:53:54;;;;;;;2.78;1.50;;;;;;;;;;6277710;22;19998;-70
2022/06/13 07:56:21;;;;;;;2.83;1.45;;;;;;;;;;6277397;22;20004;-70
2022/06/13 07:58:47;;;;;;;2.95;1.02;;;;;;;;;;6277275;22;19999;-70
2022/06/13 08:01:13;;;;;;;3.42;1.27;;;;;;;;;;6277077;22;20432;-72
2022/06/13 08:03:39;;;;;;;3.42;1.30;;;;;;;;;;6277385;22;20015;-72
2022/06/13 08:06:05;;;;;;;3.17;1.10;;;;;;;;;;6276982;22;20415;-72
2022/06/13 08:08:30;;;;;;;3.63;1.10;;;;;;;;;;6276957;22;20356;-71
2022/06/13 08:10:57;;;;;;;5.22;1.70;;;;;;;;;;6276953;22;20042;-72
2022/06/13 08:13:23;;;;;;;3.60;1.20;;;;;;;;;;6277377;22;19995;-72
2022/06/13 08:15:48;;;;;;;3.38;1.17;;;;;;;;;;6277262;22;20368;-72
2022/06/13 08:18:14;;;;;;;3.58;1.08;;;;;;;;;;6277349;22;20011;-72
2022/06/13 08:20:40;;;;;;;5.32;1.00;;;;;;;;;;6276678;22;20004;-72
2022/06/13 08:23:08;;;;;;;2.10;1.02;;;;;;;;;;6277113;22;19999;-71
2022/06/13 08:25:35;;;;;;;4.90;1.20;;;;;;;;;;6276687;22;20015;-71
2022/06/13 08:28:01;;;;;;;5.10;1.35;;;;;;;;;;6277547;22;20087;-72
2022/06/13 08:30:29;;;;;;;4.10;1.23;;;;;;;;;;6276676;22;20015;-72
2022/06/13 08:32:54;;;;;;;2.92;1.30;;;;;;;;;;6277238;22;20010;-72
2022/06/13 08:35:19;;;;;;;4.03;1.38;;;;;;;;;;6277214;22;20071;-72
2022/06/13 08:37:45;;;;;;;3.60;1.45;;;;;;;;;;6276574;22;20019;-72
2022/06/13 08:40:10;;;;;;;3.70;1.70;;;;;;;;;;6277202;22;20011;-72
2022/06/13 08:42:36;;;;;;;3.00;1.48;;;;;;;;;;6277176;22;20286;-73
2022/06/13 08:45:07;;;;;;;3.97;1.25;;;;;;;;;;6276506;22;20011;-70
2022/06/13 08:47:32;;;;;;;4.13;1.20;;;;;;;;;;6276479;22;20026;-70
2022/06/13 08:50:00;;;;;;;2.67;1.20;;;;;;;;;;6276878;22;19996;-72
2022/06/13 08:52:25;;;;;;;3.63;1.38;;;;;;;;;;6277000;22;20241;-73
2022/06/13 08:54:57;;;;;;;3.75;1.20;;;;;;;;;;6276741;22;20328;-72
2022/06/13 08:57:25;;;;;;;3.20;1.60;;;;;;;;;;6276606;22;20000;-72
2022/06/13 08:59:54;;;;;;;3.55;1.45;;;;;;;;;;6266559;22;20420;-72
2022/06/13 09:02:28;;;;;;;3.20;1.40;;;;;;;;;;6268193;22;20658;-72
2022/06/13 09:04:58;;;;;;;2.78;1.40;;;;;;;;;;6273352;22;20030;-71
2022/06/13 09:07:23;;;;;;;4.20;1.80;;;;;;;;;;6270558;22;20019;-73
2022/06/13 09:10:14;;;;;;;6.30;1.47;;;;;;;;;;6272669;22;19996;-72
2022/06/13 09:12:43;;;;;;;3.00;1.70;;;;;;;;;;6266395;22;20240;-73
2022/06/13 09:15:10;;;;;;;3.17;1.77;;;;;;;;;;6272814;22;20008;-72
2022/06/13 09:17:35;;;;;;;3.95;1.65;;;;;;;;;;6261795;22;20003;-71
2022/06/13 09:20:04;;;;;;;4.83;1.60;;;;;;;;;;6272431;22;20004;-71
2022/06/13 09:22:38;;;;;;;4.20;1.63;;;;;;;;;;6271077;22;20222;-72
2022/06/13 09:25:23;;;;;;;4.70;1.45;;;;;;;;;;6271735;22;20020;-71
2022/06/13 09:27:57;;;;;;;4.53;1.33;;;;;;;;;;6271066;22;20765;-72
2022/06/13 09:30:25;;;;;;;3.35;1.40;;;;;;;;;;6272221;22;20000;-73
2022/06/13 09:32:55;;;;;;;3.95;1.40;;;;;;;;;;6271129;22;20450;-72
2022/06/13 09:35:26;;;;;;;3.47;1.60;;;;;;;;;;6269017;22;20019;-73
2022/06/13 09:37:57;;;;;;;4.10;1.25;;;;;;;;;;6271505;22;20034;-72
2022/06/13 09:40:28;;;;;;;5.60;1.80;;;;;;;;;;6271932;22;20014;-73
2022/06/13 09:43:03;;;;;;;3.65;1.90;;;;;;;;;;6271145;22;20007;-72
2022/06/13 09:45:47;;;;;;;4.82;1.70;;;;;;;;;;6271511;22;20029;-73
2022/06/13 09:48:12;;;;;;;3.42;1.45;;;;;;;;;;6271663;22;20086;-73
2022/06/13 09:50:43;;;;;;;5.80;1.80;;;;;;;;;;6271940;22;20027;-73
2022/06/13 09:53:28;;;;;;;4.38;1.60;;;;;;;;;;6271338;22;20003;-73
2022/06/13 09:55:58;;;;;;;3.88;1.80;;;;;;;;;;6272035;22;20006;-74
2022/06/13 09:58:26;;;;;;;3.15;1.42;;;;;;;;;;6272252;22;20381;-74
2022/06/13 10:00:56;;;;;;;5.13;2.10;;;;;;;;;;6268726;22;19999;-72
2022/06/13 10:03:33;;;;;;;5.43;1.50;;;;;;;;;;6272520;22;20404;-73
2022/06/13 10:06:14;;;;;;;2.70;1.35;;;;;;;;;;6272567;22;20039;-73
2022/06/13 10:08:57;;;;;;;5.28;1.70;;;;;;;;;;6272410;22;20002;-73
2022/06/13 10:11:23;;;;;;;3.78;1.50;;;;;;;;;;6272030;22;20324;-72
2022/06/13 10:14:04;;;;;;;3.53;1.50;;;;;;;;;;6272265;22;20014;-72
2022/06/13 10:16:48;;;;;;;3.13;1.50;;;;;;;;;;6270319;22;20042;-72
2022/06/13 10:19:33;;;;;;;5.50;1.80;;;;;;;;;;6272351;22;20011;-72
2022/06/13 10:22:27;;;;;;;4.30;1.52;;;;;;;;;;6272936;22;20100;-72
2022/06/13 10:25:11;;;;;;;5.57;1.60;;;;;;;;;;6244757;22;20043;-72
2022/06/13 10:27:37;;;;;;;4.72;1.60;;;;;;;;;;6271772;22;20008;-73
2022/06/13 10:30:20;;;;;;;5.28;1.70;;;;;;;;;;6272844;22;20000;-72
2022/06/13 10:32:58;;;;;;;4.32;1.50;;;;;;;;;;6272366;22;20066;-71
2022/06/13 10:35:42;;;;;;;5.13;1.80;;;;;;;;;;6271940;22;20000;-72
2022/06/13 10:38:20;;;;;;;3.60;1.40;;;;;;;;;;6267488;22;20007;-72
2022/06/13 10:40:46;;;;;;;4.05;1.30;;;;;;;;;;6269772;22;20004;-72
2022/06/13 10:43:11;;;;;;;3.53;1.48;;;;;;;;;;6271146;22;20535;-72
2022/06/13 10:45:38;;;;;;;7.55;2.35;;;;;;;;;;6269786;22;19992;-72
2022/06/13 10:48:08;;;;;;;4.55;1.52;;;;;;;;;;6271584;22;20006;-72
2022/06/13 10:50:36;;;;;;;5.63;1.70;;;;;;;;;;6270723;22;20007;-72
2022/06/13 10:53:04;;;;;;;4.43;1.60;;;;;;;;;;6269590;22;20354;-72
2022/06/13 10:55:33;;;;;;;4.05;1.40;;;;;;;;;;6270224;22;20004;-72
2022/06/13 10:58:02;;;;;;;3.53;1.50;;;;;;;;;;6271108;22;20011;-72
2022/06/13 11:00:29;;;;;;;3.90;1.50;;;;;;;;;;6270191;22;19992;-72
2022/06/13 11:03:14;;;;;;;3.08;1.70;;;;;;;;;;6273131;22;20008;-72
2022/06/13 11:05:51;;;;;;;5.20;1.48;;;;;;;;;;6270539;22;20436;-72
2022/06/13 11:08:16;;;;;;;3.83;1.45;;;;;;;;;;6273504;22;20000;-72
2022/06/13 11:10:50;;;;;;;2.13;1.13;;;;;;;;;;6272502;22;20391;-72
2022/06/13 11:13:22;;;;;;;5.40;1.63;;;;;;;;;;6273817;22;19995;-72
2022/06/13 11:24:29;;;;;;;3.97;1.50;;;;;;;;;;6221037;22;20016;-71
2022/06/13 11:29:39;;;;;;;3.15;1.50;;;;;;;;;;6271562;22;20014;-72
2022/06/13 11:32:18;;;;;;;5.70;1.73;;;;;;;;;;6274248;22;20361;-72
2022/06/13 11:34:44;;;;;;;6.05;2.03;;;;;;;;;;6273248;22;20007;-72
2022/06/13 11:37:12;;;;;;;4.57;1.70;;;;;;;;;;6272083;22;20053;-72
2022/06/13 11:39:39;;;;;;;5.60;1.80;;;;;;;;;;6271668;22;20008;-72
2022/06/13 11:42:13;;;;;;;4.35;1.60;;;;;;;;;;6270122;22;20011;-72
2022/06/13 11:44:42;;;;;;;7.00;1.90;;;;;;;;;;6272194;22;20048;-72
2022/06/13 11:47:08;;;;;;;5.20;1.80;;;;;;;;;;6272711;22;20010;-71
2022/06/13 11:49:33;;;;;;;9.02;1.98;;;;;;;;;;6272073;22;20007;-72
2022/06/13 11:52:01;;;;;;;6.13;1.67;;;;;;;;;;6272465;22;20534;-71
2022/06/13 11:54:36;;;;;;;5.00;1.83;;;;;;;;;;6266375;22;20027;-71
2022/06/13 11:57:18;;;;;;;7.15;1.85;;;;;;;;;;6270623;22;20004;-71
2022/06/13 11:59:47;;;;;;;5.78;1.95;;;;;;;;;;6269490;22;20328;-72
2022/06/13 12:02:16;;;;;;;10.13;1.80;;;;;;;;;;6271240;22;20420;-71
2022/06/13 12:04:44;;;;;;;4.15;1.70;;;;;;;;;;6272012;22;20011;-71
2022/06/13 12:07:19;;;;;;;7.78;1.83;;;;;;;;;;6268806;22;20000;-71
2022/06/13 12:09:50;;;;;;;6.07;1.88;;;;;;;;;;6272127;22;20012;-71
2022/06/13 12:12:15;;;;;;;6.10;1.88;;;;;;;;;;6271746;22;20460;-71
2022/06/13 12:14:42;;;;;;;3.25;1.50;;;;;;;;;;6271854;22;20111;-71
2022/06/13 12:17:07;;;;;;;8.88;1.95;;;;;;;;;;6272126;22;19998;-71
2022/06/13 12:19:32;;;;;;;4.00;1.27;;;;;;;;;;6272645;22;20380;-71
2022/06/13 12:22:00;;;;;;;4.32;1.60;;;;;;;;;;6269175;22;20436;-71
2022/06/13 12:24:53;;;;;;;4.05;1.52;;;;;;;;;;6273304;22;20416;-71
2022/06/13 12:27:18;;;;;;;5.70;1.63;;;;;;;;;;6272693;22;20035;-71
2022/06/13 12:29:49;;;;;;;5.55;1.42;;;;;;;;;;6271714;22;20428;-71
2022/06/13 12:32:23;;;;;;;5.88;1.65;;;;;;;;;;6273373;22;19995;-71
2022/06/13 12:35:00;;;;;;;3.63;1.60;;;;;;;;;;6270908;22;20015;-71
2022/06/13 12:37:26;;;;;;;7.15;1.67;;;;;;;;;;6271983;22;20035;-71
2022/06/13 12:39:56;;;;;;;3.83;1.58;;;;;;;;;;6271159;22;20130;-71
2022/06/13 12:42:27;;;;;;;3.83;1.55;;;;;;;;;;6272576;22;20501;-72
2022/06/13 12:45:03;;;;;;;4.18;1.50;;;;;;;;;;6272604;22;20336;-71
2022/06/13 12:48:03;;;;;;;6.95;1.90;;;;;;;;;;6272256;22;20003;-71
2022/06/13 12:50:36;;;;;;;9.05;1.77;;;;;;;;;;6148329;23;20035;-71
2022/06/13 12:53:20;;;;;;;15.13;2.20;;;;;;;;;;6253140;22;20086;-71
2022/06/13 12:55:50;;;;;;;8.80;2.70;;;;;;;;;;6272160;22;20037;-71
2022/06/13 12:58:15;;;;;;;6.45;2.45;;;;;;;;;;6273020;22;20007;-71
2022/06/13 13:00:46;;;;;;;6.68;2.30;;;;;;;;;;6271777;22;20030;-70
2022/06/13 13:03:15;;;;;;;5.57;2.08;;;;;;;;;;6272831;22;20010;-71
2022/06/13 13:06:03;;;;;;;7.72;2.30;;;;;;;;;;6271712;22;20050;-71
2022/06/13 13:08:49;;;;;;;6.68;1.95;;;;;;;;;;6215010;22;20431;-71
2022/06/13 13:11:33;;;;;;;5.90;2.17;;;;;;;;;;6210617;22;20328;-71
2022/06/13 13:14:16;;;;;;;4.53;1.70;;;;;;;;;;6272749;22;20064;-71
2022/06/13 13:16:44;;;;;;;7.93;1.92;;;;;;;;;;6272793;22;20014;-71
2022/06/13 13:19:19;;;;;;;6.55;1.88;;;;;;;;;;6272214;22;20390;-71
2022/06/13 13:22:21;;;;;;;5.80;2.03;;;;;;;;;;6272607;22;20008;-71
2022/06/13 13:24:46;;;;;;;4.82;1.67;;;;;;;;;;6148397;23;20460;-71
2022/06/13 13:27:13;;;;;;;5.72;1.95;;;;;;;;;;6241748;22;20519;-71
2022/06/13 13:29:41;;;;;;;6.78;1.70;;;;;;;;;;6270241;22;19996;-71
2022/06/13 13:32:19;;;;;;;3.72;1.55;;;;;;;;;;6269613;22;20003;-71
2022/06/13 13:34:59;;;;;;;6.00;1.88;;;;;;;;;;6271557;22;20035;-71
2022/06/13 13:37:29;;;;;;;6.82;1.80;;;;;;;;;;6268872;22;20010;-71
2022/06/13 13:39:58;;;;;;;6.15;1.58;;;;;;;;;;6271747;22;20003;-71
2022/06/13 13:42:23;;;;;;;5.28;1.52;;;;;;;;;;6271615;22;20041;-71
2022/06/13 13:45:01;;;;;;;12.00;2.03;;;;;;;;;;6271638;22;20015;-71
2022/06/13 13:47:28;;;;;;;5.32;2.15;;;;;;;;;;6271621;22;20003;-71
2022/06/13 13:49:56;;;;;;;6.78;2.10;;;;;;;;;;6271454;22;20004;-71
2022/06/13 13:52:26;;;;;;;5.82;1.70;;;;;;;;;;6264984;22;20440;-71
2022/06/13 13:54:56;;;;;;;7.38;1.90;;;;;;;;;;6268424;22;20000;-71
2022/06/13 13:57:22;;;;;;;5.00;1.70;;;;;;;;;;6266951;22;19996;-71
2022/06/13 13:59:49;;;;;;;9.88;1.95;;;;;;;;;;6267337;22;20014;-71
2022/06/13 14:02:32;;;;;;;7.45;1.95;;;;;;;;;;6269015;22;20033;-71
2022/06/13 14:04:58;;;;;;;;;;;;;;;;;;6268566;22;20012;-71
2022/06/13 14:07:48;;;;;;;5.05;1.63;;;;;;;;;;6267911;22;19977;-71
2022/06/13 14:10:15;;;;;;;5.60;1.80;;;;;;;;;;6272442;22;20035;-71
2022/06/13 14:13:09;;;;;;;4.03;1.60;;;;;;;;;;6272193;22;19991;-71
2022/06/13 14:15:37;;;;;;;5.90;1.70;;;;;;;;;;6244982;22;20252;-71
2022/06/13 14:18:09;;;;;;;3.80;1.85;;;;;;;;;;6272243;22;19999;-70
2022/06/13 14:20:34;;;;;;;4.68;1.60;;;;;;;;;;6271497;22;20007;-71
2022/06/13 14:23:01;;;;;;;7.00;2.15;;;;;;;;;;6272298;22;20049;-71
2022/06/13 14:25:27;;;;;;;3.65;1.60;;;;;;;;;;6272665;22;20011;-71
2022/06/13 14:28:03;;;;;;;5.45;1.67;;;;;;;;;;6271824;22;20669;-70
2022/06/13 14:36:01;;;;;;;4.72;1.70;;;;;;;;;;6273361;22;20462;-70
2022/06/13 14:38:42;;;;;;;7.90;1.95;;;;;;;;;;6273969;22;20012;-71
2022/06/13 14:41:15;;;;;;;8.65;2.33;;;;;;;;;;6274420;22;19992;-70
2022/06/13 14:43:42;;;;;;;;;;;;;;;;;;6273318;22;20008;-71
2022/06/13 14:46:23;;;;;;;5.55;1.77;;;;;;;;;;6274533;22;19903;-70
2022/06/13 14:48:51;;;;;;;6.55;1.75;;;;;;;;;;6273580;22;20004;-71
2022/06/13 14:51:19;;;;;;;6.07;1.95;;;;;;;;;;6275248;22;20007;-71
2022/06/13 14:53:51;;;;;;;4.82;1.67;;;;;;;;;;6274483;22;20053;-71
2022/06/13 14:56:16;;;;;;;4.22;1.58;;;;;;;;;;6274751;22;20011;-71
2022/06/13 14:58:42;;;;;;;8.43;2.00;;;;;;;;;;6275215;22;20654;-71
2022/06/13 15:01:22;;;;;;;4.88;2.15;;;;;;;;;;6275259;22;20019;-72
2022/06/13 15:04:03;;;;;;;3.72;1.63;;;;;;;;;;6273886;22;20451;-72
2022/06/13 15:06:31;;;;;;;4.93;1.80;;;;;;;;;;6274365;22;20005;-71
2022/06/13 15:08:56;;;;;;;6.53;1.92;;;;;;;;;;6274110;22;19995;-72
2022/06/13 15:11:21;;;;;;;4.35;1.50;;;;;;;;;;6273786;22;19999;-71
2022/06/13 15:13:47;;;;;;;5.13;1.90;;;;;;;;;;6274263;22;20000;-71
2022/06/13 15:16:13;;;;;;;5.05;1.75;;;;;;;;;;6274344;22;20008;-71
2022/06/13 15:18:40;;;;;;;7.90;2.80;;;;;;;;;;6270280;22;20046;-72
2022/06/13 15:21:10;;;;;;;6.22;2.28;;;;;;;;;;6273928;22;20000;-71